sensor_id;sensor_type;location;lat;lon;timestamp;P1;durP1;ratioP1;P2;durP2;ratioP2
46835;SDS011;32573;51.290;6.926;2023-05-20T00:00:02;3.40;;;1.40;;
46835;SDS011;32573;51.290;6.926;2023-05-20T00:02:35;2.83;;;1.27;;
46835;SDS011;32573;51.290;6.926;2023-05-20T00:05:04;3.20;;;1.40;;
46835;SDS011;32573;51.290;6.926;2023-05-20T00:07:35;2.92;;;1.48;;
46835;SDS011;32573;51.290;6.926;2023-05-20T00:10:04;3.35;;;1.55;;
46835;SDS011;32573;51.290;6.926;2023-05-20T00:12:33;3.83;;;1.45;;
46835;SDS011;32573;51.290;6.926;2023-05-20T00:15:02;3.55;;;1.38;;
46835;SDS011;32573;51.290;6.926;2023-05-20T00:17:32;3.70;;;1.58;;
46835;SDS011;32573;51.290;6.926;2023-05-20T00:20:00;3.13;;;1.40;;
46835;SDS011;32573;51.290;6.926;2023-05-20T00:22:31;3.60;;;1.60;;
46835;SDS011;32573;51.290;6.926;2023-05-20T00:25:01;3.38;;;1.40;;
46835;SDS011;32573;51.290;6.926;2023-05-20T00:27:33;2.97;;;1.40;;
46835;SDS011;32573;51.290;6.926;2023-05-20T00:30:01;3.03;;;1.65;;
46835;SDS011;32573;51.290;6.926;2023-05-20T00:32:31;3.17;;;1.60;;
46835;SDS011;32573;51.290;6.926;2023-05-20T00:35:02;4.38;;;1.67;;
46835;SDS011;32573;51.290;6.926;2023-05-20T00:37:31;3.20;;;1.45;;
46835;SDS011;32573;51.290;6.926;2023-05-20T00:40:01;4.00;;;1.60;;
46835;SDS011;32573;51.290;6.926;2023-05-20T00:42:30;3.33;;;1.63;;
46835;SDS011;32573;51.290;6.926;2023-05-20T00:44:59;4.65;;;1.70;;
46835;SDS011;32573;51.290;6.926;2023-05-20T00:47:28;3.58;;;1.55;;
46835;SDS011;32573;51.290;6.926;2023-05-20T00:49:59;5.13;;;1.73;;
46835;SDS011;32573;51.290;6.926;2023-05-20T00:52:30;3.63;;;1.50;;
46835;SDS011;32573;51.290;6.926;2023-05-20T00:54:59;4.00;;;1.60;;
46835;SDS011;32573;51.290;6.926;2023-05-20T00:57:29;3.30;;;1.60;;
46835;SDS011;32573;51.290;6.926;2023-05-20T00:59:58;3.50;;;1.60;;
46835;SDS011;32573;51.290;6.926;2023-05-20T01:02:26;3.55;;;1.80;;
46835;SDS011;32573;51.290;6.926;2023-05-20T01:04:56;4.10;;;1.80;;
46835;SDS011;32573;51.290;6.926;2023-05-20T01:07:25;5.55;;;2.03;;
46835;SDS011;32573;51.290;6.926;2023-05-20T01:09:53;3.78;;;2.00;;
46835;SDS011;32573;51.290;6.926;2023-05-20T01:12:23;3.42;;;1.80;;
46835;SDS011;32573;51.290;6.926;2023-05-20T01:17:30;3.67;;;1.73;;
46835;SDS011;32573;51.290;6.926;2023-05-20T01:20:04;3.78;;;1.70;;
46835;SDS011;32573;51.290;6.926;2023-05-20T01:22:38;3.83;;;1.80;;
46835;SDS011;32573;51.290;6.926;2023-05-20T01:25:13;3.45;;;1.60;;
46835;SDS011;32573;51.290;6.926;2023-05-20T01:27:45;3.80;;;1.70;;
46835;SDS011;32573;51.290;6.926;2023-05-20T01:30:15;3.85;;;1.75;;
46835;SDS011;32573;51.290;6.926;2023-05-20T01:32:47;4.82;;;2.08;;
46835;SDS011;32573;51.290;6.926;2023-05-20T01:35:17;3.75;;;1.65;;
46835;SDS011;32573;51.290;6.926;2023-05-20T01:37:49;3.88;;;1.65;;
46835;SDS011;32573;51.290;6.926;2023-05-20T01:40:21;3.63;;;1.63;;
46835;SDS011;32573;51.290;6.926;2023-05-20T01:42:50;4.35;;;1.80;;
46835;SDS011;32573;51.290;6.926;2023-05-20T01:45:22;3.80;;;1.80;;
46835;SDS011;32573;51.290;6.926;2023-05-20T01:47:51;3.55;;;1.70;;
46835;SDS011;32573;51.290;6.926;2023-05-20T01:50:20;3.97;;;1.80;;
46835;SDS011;32573;51.290;6.926;2023-05-20T01:52:50;3.85;;;1.80;;
46835;SDS011;32573;51.290;6.926;2023-05-20T01:55:18;3.67;;;1.80;;
46835;SDS011;32573;51.290;6.926;2023-05-20T01:57:47;3.83;;;1.80;;
46835;SDS011;32573;51.290;6.926;2023-05-20T02:00:16;4.47;;;1.95;;
46835;SDS011;32573;51.290;6.926;2023-05-20T02:02:44;5.85;;;1.88;;
46835;SDS011;32573;51.290;6.926;2023-05-20T02:05:13;3.95;;;2.00;;
46835;SDS011;32573;51.290;6.926;2023-05-20T02:07:42;4.00;;;1.90;;
46835;SDS011;32573;51.290;6.926;2023-05-20T02:10:13;4.50;;;2.38;;
46835;SDS011;32573;51.290;6.926;2023-05-20T02:12:42;5.68;;;2.15;;
46835;SDS011;32573;51.290;6.926;2023-05-20T02:15:12;4.38;;;2.00;;
46835;SDS011;32573;51.290;6.926;2023-05-20T02:17:40;5.43;;;2.13;;
46835;SDS011;32573;51.290;6.926;2023-05-20T02:20:10;4.82;;;2.20;;
46835;SDS011;32573;51.290;6.926;2023-05-20T02:22:40;7.53;;;2.40;;
46835;SDS011;32573;51.290;6.926;2023-05-20T02:25:09;5.05;;;2.38;;
46835;SDS011;32573;51.290;6.926;2023-05-20T02:27:40;5.15;;;2.30;;
46835;SDS011;32573;51.290;6.926;2023-05-20T02:30:08;5.40;;;2.05;;
46835;SDS011;32573;51.290;6.926;2023-05-20T02:32:37;4.15;;;1.90;;
46835;SDS011;32573;51.290;6.926;2023-05-20T02:35:06;3.95;;;1.90;;
46835;SDS011;32573;51.290;6.926;2023-05-20T02:37:35;5.10;;;2.20;;
46835;SDS011;32573;51.290;6.926;2023-05-20T02:40:06;3.97;;;1.85;;
46835;SDS011;32573;51.290;6.926;2023-05-20T02:42:38;6.15;;;2.38;;
46835;SDS011;32573;51.290;6.926;2023-05-20T02:45:08;4.35;;;2.28;;
46835;SDS011;32573;51.290;6.926;2023-05-20T02:47:38;4.32;;;2.03;;
46835;SDS011;32573;51.290;6.926;2023-05-20T02:50:07;3.83;;;2.00;;
46835;SDS011;32573;51.290;6.926;2023-05-20T02:52:36;5.40;;;2.22;;
46835;SDS011;32573;51.290;6.926;2023-05-20T02:55:06;3.63;;;1.95;;
46835;SDS011;32573;51.290;6.926;2023-05-20T02:57:35;3.97;;;1.88;;
46835;SDS011;32573;51.290;6.926;2023-05-20T03:00:08;4.13;;;2.00;;
46835;SDS011;32573;51.290;6.926;2023-05-20T03:02:39;3.58;;;1.85;;
46835;SDS011;32573;51.290;6.926;2023-05-20T03:05:08;4.22;;;2.15;;
46835;SDS011;32573;51.290;6.926;2023-05-20T03:07:39;4.18;;;1.98;;
46835;SDS011;32573;51.290;6.926;2023-05-20T03:10:08;4.10;;;2.13;;
46835;SDS011;32573;51.290;6.926;2023-05-20T03:12:38;3.58;;;1.90;;
46835;SDS011;32573;51.290;6.926;2023-05-20T03:15:09;4.10;;;1.90;;
46835;SDS011;32573;51.290;6.926;2023-05-20T03:17:39;4.80;;;2.05;;
46835;SDS011;32573;51.290;6.926;2023-05-20T03:20:08;3.70;;;2.10;;
46835;SDS011;32573;51.290;6.926;2023-05-20T03:22:40;4.38;;;2.00;;
46835;SDS011;32573;51.290;6.926;2023-05-20T03:25:08;5.57;;;2.60;;
46835;SDS011;32573;51.290;6.926;2023-05-20T03:27:37;4.55;;;2.10;;
46835;SDS011;32573;51.290;6.926;2023-05-20T03:30:06;4.68;;;2.45;;
46835;SDS011;32573;51.290;6.926;2023-05-20T03:32:37;4.50;;;2.33;;
46835;SDS011;32573;51.290;6.926;2023-05-20T03:35:06;3.95;;;2.10;;
46835;SDS011;32573;51.290;6.926;2023-05-20T03:37:36;4.38;;;1.98;;
46835;SDS011;32573;51.290;6.926;2023-05-20T03:40:06;4.57;;;2.33;;
46835;SDS011;32573;51.290;6.926;2023-05-20T03:42:37;3.80;;;2.08;;
46835;SDS011;32573;51.290;6.926;2023-05-20T03:45:06;4.97;;;2.35;;
46835;SDS011;32573;51.290;6.926;2023-05-20T03:47:44;4.28;;;2.17;;
46835;SDS011;32573;51.290;6.926;2023-05-20T03:50:12;4.18;;;1.88;;
46835;SDS011;32573;51.290;6.926;2023-05-20T03:52:41;4.18;;;2.20;;
46835;SDS011;32573;51.290;6.926;2023-05-20T03:55:11;3.83;;;1.77;;
46835;SDS011;32573;51.290;6.926;2023-05-20T03:57:39;4.82;;;2.03;;
46835;SDS011;32573;51.290;6.926;2023-05-20T04:00:11;5.10;;;2.20;;
46835;SDS011;32573;51.290;6.926;2023-05-20T04:02:44;4.22;;;1.98;;
46835;SDS011;32573;51.290;6.926;2023-05-20T04:05:16;4.43;;;2.40;;
46835;SDS011;32573;51.290;6.926;2023-05-20T04:07:46;3.75;;;1.80;;
46835;SDS011;32573;51.290;6.926;2023-05-20T04:10:17;4.18;;;1.88;;
46835;SDS011;32573;51.290;6.926;2023-05-20T04:12:47;4.63;;;1.83;;
46835;SDS011;32573;51.290;6.926;2023-05-20T04:15:17;4.20;;;1.88;;
46835;SDS011;32573;51.290;6.926;2023-05-20T04:17:54;4.45;;;1.80;;
46835;SDS011;32573;51.290;6.926;2023-05-20T04:20:23;4.55;;;1.85;;
46835;SDS011;32573;51.290;6.926;2023-05-20T04:22:56;4.50;;;1.77;;
46835;SDS011;32573;51.290;6.926;2023-05-20T04:25:25;3.70;;;1.70;;
46835;SDS011;32573;51.290;6.926;2023-05-20T04:27:54;3.95;;;2.03;;
46835;SDS011;32573;51.290;6.926;2023-05-20T04:30:23;4.00;;;2.00;;
46835;SDS011;32573;51.290;6.926;2023-05-20T04:32:54;4.03;;;2.22;;
46835;SDS011;32573;51.290;6.926;2023-05-20T04:35:22;4.22;;;1.95;;
46835;SDS011;32573;51.290;6.926;2023-05-20T04:37:52;4.25;;;1.90;;
46835;SDS011;32573;51.290;6.926;2023-05-20T04:40:22;4.43;;;2.17;;
46835;SDS011;32573;51.290;6.926;2023-05-20T04:42:51;4.15;;;1.80;;
46835;SDS011;32573;51.290;6.926;2023-05-20T04:45:20;4.35;;;2.05;;
46835;SDS011;32573;51.290;6.926;2023-05-20T04:47:49;4.07;;;1.88;;
46835;SDS011;32573;51.290;6.926;2023-05-20T04:50:20;4.75;;;2.05;;
46835;SDS011;32573;51.290;6.926;2023-05-20T04:52:49;4.55;;;1.83;;
46835;SDS011;32573;51.290;6.926;2023-05-20T04:55:18;4.53;;;1.95;;
46835;SDS011;32573;51.290;6.926;2023-05-20T04:57:47;4.18;;;1.90;;
46835;SDS011;32573;51.290;6.926;2023-05-20T05:00:16;4.00;;;2.05;;
46835;SDS011;32573;51.290;6.926;2023-05-20T05:02:46;5.07;;;2.10;;
46835;SDS011;32573;51.290;6.926;2023-05-20T05:05:15;4.85;;;2.15;;
46835;SDS011;32573;51.290;6.926;2023-05-20T05:07:45;4.22;;;2.15;;
46835;SDS011;32573;51.290;6.926;2023-05-20T05:10:14;4.50;;;2.38;;
46835;SDS011;32573;51.290;6.926;2023-05-20T05:12:43;4.97;;;2.10;;
46835;SDS011;32573;51.290;6.926;2023-05-20T05:15:12;4.97;;;2.30;;
46835;SDS011;32573;51.290;6.926;2023-05-20T05:17:42;5.10;;;2.47;;
46835;SDS011;32573;51.290;6.926;2023-05-20T05:20:11;4.30;;;2.20;;
46835;SDS011;32573;51.290;6.926;2023-05-20T05:22:40;4.13;;;2.05;;
46835;SDS011;32573;51.290;6.926;2023-05-20T05:25:10;4.55;;;1.92;;
46835;SDS011;32573;51.290;6.926;2023-05-20T05:27:41;6.25;;;2.20;;
46835;SDS011;32573;51.290;6.926;2023-05-20T05:30:10;3.88;;;2.10;;
46835;SDS011;32573;51.290;6.926;2023-05-20T05:32:39;4.03;;;2.00;;
46835;SDS011;32573;51.290;6.926;2023-05-20T05:35:08;5.20;;;2.13;;
46835;SDS011;32573;51.290;6.926;2023-05-20T05:37:37;3.70;;;1.80;;
46835;SDS011;32573;51.290;6.926;2023-05-20T05:40:06;3.90;;;1.90;;
46835;SDS011;32573;51.290;6.926;2023-05-20T05:42:37;5.20;;;1.98;;
46835;SDS011;32573;51.290;6.926;2023-05-20T05:45:07;3.22;;;1.83;;
46835;SDS011;32573;51.290;6.926;2023-05-20T05:47:36;3.78;;;2.08;;
46835;SDS011;32573;51.290;6.926;2023-05-20T05:50:05;4.25;;;2.20;;
46835;SDS011;32573;51.290;6.926;2023-05-20T05:52:34;3.90;;;2.20;;
46835;SDS011;32573;51.290;6.926;2023-05-20T05:55:06;5.53;;;2.50;;
46835;SDS011;32573;51.290;6.926;2023-05-20T05:57:38;5.13;;;2.30;;
46835;SDS011;32573;51.290;6.926;2023-05-20T06:00:08;6.20;;;2.38;;
46835;SDS011;32573;51.290;6.926;2023-05-20T06:02:46;4.32;;;2.47;;
46835;SDS011;32573;51.290;6.926;2023-05-20T06:05:34;4.50;;;2.38;;
46835;SDS011;32573;51.290;6.926;2023-05-20T06:08:06;5.18;;;2.50;;
46835;SDS011;32573;51.290;6.926;2023-05-20T06:10:35;4.90;;;2.33;;
46835;SDS011;32573;51.290;6.926;2023-05-20T06:13:05;4.60;;;2.30;;
46835;SDS011;32573;51.290;6.926;2023-05-20T06:15:34;4.43;;;2.40;;
46835;SDS011;32573;51.290;6.926;2023-05-20T06:18:03;4.20;;;2.33;;
46835;SDS011;32573;51.290;6.926;2023-05-20T06:20:32;4.50;;;2.20;;
46835;SDS011;32573;51.290;6.926;2023-05-20T06:23:02;6.80;;;2.80;;
46835;SDS011;32573;51.290;6.926;2023-05-20T06:25:51;4.53;;;2.53;;
46835;SDS011;32573;51.290;6.926;2023-05-20T06:28:21;4.93;;;2.45;;
46835;SDS011;32573;51.290;6.926;2023-05-20T06:30:49;4.75;;;2.40;;
46835;SDS011;32573;51.290;6.926;2023-05-20T06:33:19;3.90;;;2.10;;
46835;SDS011;32573;51.290;6.926;2023-05-20T06:35:48;3.95;;;2.20;;
46835;SDS011;32573;51.290;6.926;2023-05-20T06:38:17;4.95;;;2.50;;
46835;SDS011;32573;51.290;6.926;2023-05-20T06:40:47;3.67;;;1.83;;
46835;SDS011;32573;51.290;6.926;2023-05-20T06:43:17;5.28;;;2.65;;
46835;SDS011;32573;51.290;6.926;2023-05-20T06:45:57;5.07;;;2.30;;
46835;SDS011;32573;51.290;6.926;2023-05-20T06:48:29;4.80;;;2.25;;
46835;SDS011;32573;51.290;6.926;2023-05-20T06:50:59;6.63;;;2.75;;
46835;SDS011;32573;51.290;6.926;2023-05-20T06:53:27;5.18;;;2.72;;
46835;SDS011;32573;51.290;6.926;2023-05-20T06:55:56;27.92;;;13.57;;
46835;SDS011;32573;51.290;6.926;2023-05-20T06:58:25;73.85;;;36.45;;
46835;SDS011;32573;51.290;6.926;2023-05-20T07:00:55;25.42;;;13.43;;
46835;SDS011;32573;51.290;6.926;2023-05-20T07:03:26;16.75;;;8.85;;
46835;SDS011;32573;51.290;6.926;2023-05-20T07:05:55;21.33;;;11.35;;
46835;SDS011;32573;51.290;6.926;2023-05-20T07:08:24;15.75;;;9.45;;
46835;SDS011;32573;51.290;6.926;2023-05-20T07:10:54;13.02;;;7.82;;
46835;SDS011;32573;51.290;6.926;2023-05-20T07:13:23;9.75;;;5.78;;
46835;SDS011;32573;51.290;6.926;2023-05-20T07:15:52;8.20;;;4.88;;
46835;SDS011;32573;51.290;6.926;2023-05-20T07:21:24;6.45;;;3.35;;
46835;SDS011;32573;51.290;6.926;2023-05-20T07:24:00;6.40;;;3.60;;
46835;SDS011;32573;51.290;6.926;2023-05-20T07:26:30;5.60;;;3.03;;
46835;SDS011;32573;51.290;6.926;2023-05-20T07:28:59;5.15;;;2.78;;
46835;SDS011;32573;51.290;6.926;2023-05-20T07:31:28;5.05;;;3.00;;
46835;SDS011;32573;51.290;6.926;2023-05-20T07:33:58;4.47;;;2.70;;
46835;SDS011;32573;51.290;6.926;2023-05-20T07:36:28;5.32;;;2.85;;
46835;SDS011;32573;51.290;6.926;2023-05-20T07:39:01;5.78;;;3.20;;
46835;SDS011;32573;51.290;6.926;2023-05-20T07:41:38;4.15;;;2.50;;
46835;SDS011;32573;51.290;6.926;2023-05-20T07:44:07;5.25;;;2.70;;
46835;SDS011;32573;51.290;6.926;2023-05-20T07:46:39;4.45;;;2.42;;
46835;SDS011;32573;51.290;6.926;2023-05-20T07:49:09;5.03;;;2.47;;
46835;SDS011;32573;51.290;6.926;2023-05-20T07:51:40;4.03;;;2.35;;
46835;SDS011;32573;51.290;6.926;2023-05-20T07:54:10;5.35;;;2.80;;
46835;SDS011;32573;51.290;6.926;2023-05-20T07:56:38;4.60;;;2.55;;
46835;SDS011;32573;51.290;6.926;2023-05-20T07:59:10;5.20;;;2.78;;
46835;SDS011;32573;51.290;6.926;2023-05-20T08:01:43;5.35;;;2.85;;
46835;SDS011;32573;51.290;6.926;2023-05-20T08:04:17;5.40;;;3.30;;
46835;SDS011;32573;51.290;6.926;2023-05-20T08:06:47;5.38;;;2.75;;
46835;SDS011;32573;51.290;6.926;2023-05-20T08:09:26;6.80;;;3.10;;
46835;SDS011;32573;51.290;6.926;2023-05-20T08:11:56;5.82;;;2.92;;
46835;SDS011;32573;51.290;6.926;2023-05-20T08:14:25;5.28;;;2.72;;
46835;SDS011;32573;51.290;6.926;2023-05-20T08:16:53;5.60;;;3.35;;
46835;SDS011;32573;51.290;6.926;2023-05-20T08:19:22;5.28;;;2.97;;
46835;SDS011;32573;51.290;6.926;2023-05-20T08:21:52;6.03;;;3.10;;
46835;SDS011;32573;51.290;6.926;2023-05-20T08:24:21;6.00;;;3.42;;
46835;SDS011;32573;51.290;6.926;2023-05-20T08:26:50;6.05;;;3.25;;
46835;SDS011;32573;51.290;6.926;2023-05-20T08:29:21;6.80;;;3.45;;
46835;SDS011;32573;51.290;6.926;2023-05-20T08:31:50;7.18;;;3.95;;
46835;SDS011;32573;51.290;6.926;2023-05-20T08:34:20;5.85;;;3.20;;
46835;SDS011;32573;51.290;6.926;2023-05-20T08:36:48;6.05;;;3.80;;
46835;SDS011;32573;51.290;6.926;2023-05-20T08:39:19;6.10;;;3.00;;
46835;SDS011;32573;51.290;6.926;2023-05-20T08:41:47;5.78;;;3.30;;
46835;SDS011;32573;51.290;6.926;2023-05-20T08:44:17;6.05;;;2.97;;
46835;SDS011;32573;51.290;6.926;2023-05-20T08:46:46;5.40;;;3.22;;
46835;SDS011;32573;51.290;6.926;2023-05-20T08:49:18;5.20;;;3.03;;
46835;SDS011;32573;51.290;6.926;2023-05-20T08:51:47;5.88;;;3.70;;
46835;SDS011;32573;51.290;6.926;2023-05-20T08:54:15;5.30;;;3.10;;
46835;SDS011;32573;51.290;6.926;2023-05-20T08:56:48;6.05;;;3.35;;
46835;SDS011;32573;51.290;6.926;2023-05-20T08:59:17;6.47;;;4.32;;
46835;SDS011;32573;51.290;6.926;2023-05-20T09:01:46;6.30;;;4.30;;
46835;SDS011;32573;51.290;6.926;2023-05-20T09:04:14;7.68;;;3.67;;
46835;SDS011;32573;51.290;6.926;2023-05-20T09:06:44;6.72;;;3.92;;
46835;SDS011;32573;51.290;6.926;2023-05-20T09:09:14;6.65;;;3.80;;
46835;SDS011;32573;51.290;6.926;2023-05-20T09:11:48;5.93;;;3.08;;
46835;SDS011;32573;51.290;6.926;2023-05-20T09:14:17;6.32;;;3.53;;
46835;SDS011;32573;51.290;6.926;2023-05-20T09:16:46;7.25;;;5.07;;
46835;SDS011;32573;51.290;6.926;2023-05-20T09:19:15;6.82;;;3.67;;
46835;SDS011;32573;51.290;6.926;2023-05-20T09:21:45;5.97;;;3.38;;
46835;SDS011;32573;51.290;6.926;2023-05-20T09:24:14;6.55;;;3.47;;
46835;SDS011;32573;51.290;6.926;2023-05-20T09:26:42;6.75;;;3.55;;
46835;SDS011;32573;51.290;6.926;2023-05-20T09:29:12;5.50;;;3.30;;
46835;SDS011;32573;51.290;6.926;2023-05-20T09:31:41;5.85;;;3.30;;
46835;SDS011;32573;51.290;6.926;2023-05-20T09:34:10;6.85;;;3.72;;
46835;SDS011;32573;51.290;6.926;2023-05-20T09:36:39;5.20;;;3.35;;
46835;SDS011;32573;51.290;6.926;2023-05-20T09:39:11;6.03;;;3.70;;
46835;SDS011;32573;51.290;6.926;2023-05-20T09:41:49;7.03;;;3.70;;
46835;SDS011;32573;51.290;6.926;2023-05-20T09:44:25;6.45;;;3.40;;
46835;SDS011;32573;51.290;6.926;2023-05-20T09:46:55;6.18;;;3.80;;
46835;SDS011;32573;51.290;6.926;2023-05-20T09:49:25;6.00;;;3.60;;
46835;SDS011;32573;51.290;6.926;2023-05-20T09:51:55;5.47;;;3.38;;
46835;SDS011;32573;51.290;6.926;2023-05-20T09:54:26;6.55;;;3.67;;
46835;SDS011;32573;51.290;6.926;2023-05-20T09:56:57;6.60;;;4.00;;
46835;SDS011;32573;51.290;6.926;2023-05-20T09:59:28;6.70;;;3.67;;
46835;SDS011;32573;51.290;6.926;2023-05-20T10:01:59;5.47;;;3.20;;
46835;SDS011;32573;51.290;6.926;2023-05-20T10:04:27;5.90;;;3.35;;
46835;SDS011;32573;51.290;6.926;2023-05-20T10:07:08;5.75;;;3.60;;
46835;SDS011;32573;51.290;6.926;2023-05-20T10:10:12;6.45;;;3.55;;
46835;SDS011;32573;51.290;6.926;2023-05-20T10:12:52;6.22;;;3.58;;
46835;SDS011;32573;51.290;6.926;2023-05-20T10:15:29;6.43;;;3.58;;
46835;SDS011;32573;51.290;6.926;2023-05-20T10:18:09;7.30;;;3.90;;
46835;SDS011;32573;51.290;6.926;2023-05-20T10:20:43;5.82;;;3.40;;
46835;SDS011;32573;51.290;6.926;2023-05-20T10:23:19;6.40;;;3.70;;
46835;SDS011;32573;51.290;6.926;2023-05-20T10:25:49;6.28;;;3.53;;
46835;SDS011;32573;51.290;6.926;2023-05-20T10:31:15;6.47;;;3.58;;
46835;SDS011;32573;51.290;6.926;2023-05-20T10:33:45;5.60;;;3.10;;
46835;SDS011;32573;51.290;6.926;2023-05-20T10:36:22;9.13;;;3.42;;
46835;SDS011;32573;51.290;6.926;2023-05-20T10:38:54;6.72;;;3.25;;
46835;SDS011;32573;51.290;6.926;2023-05-20T10:41:23;5.40;;;3.35;;
46835;SDS011;32573;51.290;6.926;2023-05-20T10:43:59;6.32;;;3.50;;
46835;SDS011;32573;51.290;6.926;2023-05-20T10:46:30;6.03;;;3.58;;
46835;SDS011;32573;51.290;6.926;2023-05-20T10:49:20;6.47;;;3.60;;
46835;SDS011;32573;51.290;6.926;2023-05-20T10:51:53;6.15;;;3.22;;
46835;SDS011;32573;51.290;6.926;2023-05-20T10:54:22;5.82;;;3.33;;
46835;SDS011;32573;51.290;6.926;2023-05-20T10:56:51;6.45;;;3.70;;
46835;SDS011;32573;51.290;6.926;2023-05-20T10:59:21;5.45;;;3.33;;
46835;SDS011;32573;51.290;6.926;2023-05-20T11:01:51;7.35;;;4.25;;
46835;SDS011;32573;51.290;6.926;2023-05-20T11:04:21;6.50;;;3.50;;
46835;SDS011;32573;51.290;6.926;2023-05-20T11:06:50;9.07;;;3.90;;
46835;SDS011;32573;51.290;6.926;2023-05-20T11:09:22;5.70;;;3.25;;
46835;SDS011;32573;51.290;6.926;2023-05-20T11:11:50;5.53;;;3.25;;
46835;SDS011;32573;51.290;6.926;2023-05-20T11:14:20;6.47;;;3.70;;
46835;SDS011;32573;51.290;6.926;2023-05-20T11:16:55;6.00;;;3.60;;
46835;SDS011;32573;51.290;6.926;2023-05-20T11:19:25;5.57;;;3.55;;
46835;SDS011;32573;51.290;6.926;2023-05-20T11:21:54;6.80;;;3.60;;
46835;SDS011;32573;51.290;6.926;2023-05-20T11:24:23;7.68;;;3.65;;
46835;SDS011;32573;51.290;6.926;2023-05-20T11:26:54;7.20;;;4.00;;
46835;SDS011;32573;51.290;6.926;2023-05-20T11:29:24;5.50;;;3.42;;
46835;SDS011;32573;51.290;6.926;2023-05-20T11:31:57;6.60;;;3.72;;
46835;SDS011;32573;51.290;6.926;2023-05-20T11:34:32;6.43;;;3.72;;
46835;SDS011;32573;51.290;6.926;2023-05-20T11:37:05;7.05;;;4.20;;
46835;SDS011;32573;51.290;6.926;2023-05-20T11:39:35;6.65;;;4.10;;
46835;SDS011;32573;51.290;6.926;2023-05-20T11:42:05;6.30;;;4.03;;
46835;SDS011;32573;51.290;6.926;2023-05-20T11:44:34;7.18;;;4.20;;
46835;SDS011;32573;51.290;6.926;2023-05-20T11:47:04;6.47;;;3.70;;
46835;SDS011;32573;51.290;6.926;2023-05-20T11:49:38;7.75;;;3.95;;
46835;SDS011;32573;51.290;6.926;2023-05-20T11:52:07;6.20;;;4.00;;
46835;SDS011;32573;51.290;6.926;2023-05-20T11:54:37;7.75;;;4.40;;
46835;SDS011;32573;51.290;6.926;2023-05-20T11:57:05;5.85;;;3.70;;
46835;SDS011;32573;51.290;6.926;2023-05-20T11:59:34;7.03;;;4.15;;
46835;SDS011;32573;51.290;6.926;2023-05-20T12:02:05;6.53;;;4.10;;
46835;SDS011;32573;51.290;6.926;2023-05-20T12:04:34;7.63;;;4.10;;
46835;SDS011;32573;51.290;6.926;2023-05-20T12:07:03;7.45;;;4.10;;
46835;SDS011;32573;51.290;6.926;2023-05-20T12:09:35;7.32;;;3.97;;
46835;SDS011;32573;51.290;6.926;2023-05-20T12:12:05;6.13;;;3.55;;
46835;SDS011;32573;51.290;6.926;2023-05-20T12:14:35;7.63;;;4.28;;
46835;SDS011;32573;51.290;6.926;2023-05-20T12:17:06;6.50;;;3.80;;
46835;SDS011;32573;51.290;6.926;2023-05-20T12:19:34;7.28;;;4.18;;
46835;SDS011;32573;51.290;6.926;2023-05-20T12:22:06;7.30;;;4.28;;
46835;SDS011;32573;51.290;6.926;2023-05-20T12:24:37;6.03;;;3.53;;
46835;SDS011;32573;51.290;6.926;2023-05-20T12:27:06;7.93;;;4.40;;
46835;SDS011;32573;51.290;6.926;2023-05-20T12:29:36;6.20;;;3.67;;
46835;SDS011;32573;51.290;6.926;2023-05-20T12:32:07;6.13;;;3.95;;
46835;SDS011;32573;51.290;6.926;2023-05-20T12:34:39;5.28;;;3.63;;
46835;SDS011;32573;51.290;6.926;2023-05-20T12:37:08;9.13;;;4.10;;
46835;SDS011;32573;51.290;6.926;2023-05-20T12:39:38;5.50;;;3.38;;
46835;SDS011;32573;51.290;6.926;2023-05-20T12:42:07;5.18;;;3.25;;
46835;SDS011;32573;51.290;6.926;2023-05-20T12:44:36;5.47;;;3.40;;
46835;SDS011;32573;51.290;6.926;2023-05-20T12:47:07;5.70;;;3.15;;
46835;SDS011;32573;51.290;6.926;2023-05-20T12:49:37;5.15;;;3.15;;
46835;SDS011;32573;51.290;6.926;2023-05-20T12:52:06;5.65;;;3.22;;
46835;SDS011;32573;51.290;6.926;2023-05-20T12:54:48;5.13;;;2.85;;
46835;SDS011;32573;51.290;6.926;2023-05-20T12:57:17;4.68;;;3.00;;
46835;SDS011;32573;51.290;6.926;2023-05-20T12:59:46;5.07;;;3.10;;
46835;SDS011;32573;51.290;6.926;2023-05-20T13:02:18;5.25;;;3.05;;
46835;SDS011;32573;51.290;6.926;2023-05-20T13:04:47;5.05;;;3.20;;
46835;SDS011;32573;51.290;6.926;2023-05-20T13:07:16;4.95;;;3.00;;
46835;SDS011;32573;51.290;6.926;2023-05-20T13:09:46;5.20;;;3.00;;
46835;SDS011;32573;51.290;6.926;2023-05-20T13:12:15;5.05;;;2.72;;
46835;SDS011;32573;51.290;6.926;2023-05-20T13:14:44;5.25;;;2.80;;
46835;SDS011;32573;51.290;6.926;2023-05-20T13:17:13;5.85;;;3.10;;
46835;SDS011;32573;51.290;6.926;2023-05-20T13:19:44;5.18;;;2.97;;
46835;SDS011;32573;51.290;6.926;2023-05-20T13:22:13;5.78;;;3.30;;
46835;SDS011;32573;51.290;6.926;2023-05-20T13:24:42;4.85;;;3.00;;
46835;SDS011;32573;51.290;6.926;2023-05-20T13:27:11;4.60;;;2.60;;
46835;SDS011;32573;51.290;6.926;2023-05-20T13:29:41;6.25;;;2.92;;
46835;SDS011;32573;51.290;6.926;2023-05-20T13:32:11;4.78;;;2.75;;
46835;SDS011;32573;51.290;6.926;2023-05-20T13:34:42;4.55;;;2.42;;
46835;SDS011;32573;51.290;6.926;2023-05-20T13:37:13;4.90;;;2.70;;
46835;SDS011;32573;51.290;6.926;2023-05-20T13:39:43;4.15;;;2.50;;
46835;SDS011;32573;51.290;6.926;2023-05-20T13:42:15;4.80;;;2.70;;
46835;SDS011;32573;51.290;6.926;2023-05-20T13:44:45;4.82;;;2.70;;
46835;SDS011;32573;51.290;6.926;2023-05-20T13:47:14;4.28;;;2.65;;
46835;SDS011;32573;51.290;6.926;2023-05-20T13:49:45;5.55;;;2.85;;
46835;SDS011;32573;51.290;6.926;2023-05-20T13:52:14;5.53;;;2.88;;
46835;SDS011;32573;51.290;6.926;2023-05-20T13:54:44;5.80;;;2.90;;
46835;SDS011;32573;51.290;6.926;2023-05-20T13:57:14;6.07;;;3.08;;
46835;SDS011;32573;51.290;6.926;2023-05-20T13:59:44;5.18;;;3.03;;
46835;SDS011;32573;51.290;6.926;2023-05-20T14:02:13;4.72;;;2.70;;
46835;SDS011;32573;51.290;6.926;2023-05-20T14:04:42;5.93;;;3.17;;
46835;SDS011;32573;51.290;6.926;2023-05-20T14:07:14;4.97;;;2.83;;
46835;SDS011;32573;51.290;6.926;2023-05-20T14:09:43;4.60;;;3.00;;
46835;SDS011;32573;51.290;6.926;2023-05-20T14:12:11;5.95;;;2.97;;
46835;SDS011;32573;51.290;6.926;2023-05-20T14:14:40;5.10;;;3.13;;
46835;SDS011;32573;51.290;6.926;2023-05-20T14:17:09;5.60;;;2.80;;
46835;SDS011;32573;51.290;6.926;2023-05-20T14:19:37;4.85;;;2.70;;
46835;SDS011;32573;51.290;6.926;2023-05-20T14:22:06;4.93;;;2.90;;
46835;SDS011;32573;51.290;6.926;2023-05-20T14:24:36;4.63;;;2.78;;
46835;SDS011;32573;51.290;6.926;2023-05-20T14:27:05;4.93;;;2.92;;
46835;SDS011;32573;51.290;6.926;2023-05-20T14:29:33;4.30;;;2.58;;
46835;SDS011;32573;51.290;6.926;2023-05-20T14:32:02;3.88;;;2.40;;
46835;SDS011;32573;51.290;6.926;2023-05-20T14:34:31;5.13;;;2.70;;
46835;SDS011;32573;51.290;6.926;2023-05-20T14:37:00;4.32;;;2.45;;
46835;SDS011;32573;51.290;6.926;2023-05-20T14:39:33;6.50;;;2.80;;
46835;SDS011;32573;51.290;6.926;2023-05-20T14:42:04;4.57;;;2.42;;
46835;SDS011;32573;51.290;6.926;2023-05-20T14:44:33;4.18;;;2.40;;
46835;SDS011;32573;51.290;6.926;2023-05-20T14:47:02;4.70;;;2.65;;
46835;SDS011;32573;51.290;6.926;2023-05-20T14:49:31;5.45;;;2.70;;
46835;SDS011;32573;51.290;6.926;2023-05-20T14:52:00;4.93;;;3.03;;
46835;SDS011;32573;51.290;6.926;2023-05-20T14:54:28;4.43;;;2.60;;
46835;SDS011;32573;51.290;6.926;2023-05-20T14:56:57;5.68;;;2.55;;
46835;SDS011;32573;51.290;6.926;2023-05-20T14:59:27;4.40;;;2.50;;
46835;SDS011;32573;51.290;6.926;2023-05-20T15:01:56;4.47;;;2.58;;
46835;SDS011;32573;51.290;6.926;2023-05-20T15:04:24;4.40;;;2.60;;
46835;SDS011;32573;51.290;6.926;2023-05-20T15:06:53;4.55;;;2.60;;
46835;SDS011;32573;51.290;6.926;2023-05-20T15:09:22;4.78;;;2.80;;
46835;SDS011;32573;51.290;6.926;2023-05-20T15:11:51;4.15;;;2.45;;
46835;SDS011;32573;51.290;6.926;2023-05-20T15:14:20;4.80;;;2.70;;